Time;durP1;ratioP1;P1;durP2;ratioP2;P2;SDS_P1;SDS_P2;PMS_P1;PMS_P2;Temp;Humidity;BMP_temperature;BMP_pressure;BME280_temperature;BME280_humidity;BME280_pressure;Samples;Min_cycle;Max_cycle;Signal;HPM_P1;HPM_P2
2024/01/16 00:01:56;;;;;;;3.60;3.20;;;;;;;1.63;100.00;98545.70;176783;1263;46156;-81
2024/01/16 00:06:00;;;;;;;4.10;3.50;;;;;;;1.51;100.00;98554.23;179385;1265;46018;-81
2024/01/16 00:10:04;;;;;;;4.90;3.00;;;;;;;1.31;100.00;98567.16;178423;1267;59294;-81
2024/01/16 00:14:07;;;;;;;5.70;3.60;;;;;;;1.14;100.00;98577.41;178656;1263;44082;-82
2024/01/16 00:18:11;;;;;;;16.30;12.30;;;;;;;0.85;100.00;98602.81;177899;1267;46050;-81
2024/01/16 00:22:14;;;;;;;2.60;1.80;;;;;;;0.65;100.00;98626.65;178012;1264;46620;-82
2024/01/16 00:26:22;;;;;;;2.40;1.70;;;;;;;0.37;100.00;98648.55;178281;1263;48462;-81
2024/01/16 00:30:25;;;;;;;3.30;2.30;;;;;;;0.09;100.00;98655.41;176807;1264;59243;-81
2024/01/16 00:34:28;;;;;;;6.10;1.60;;;;;;;0.02;100.00;98660.75;177297;1267;46138;-81
2024/01/16 00:38:34;;;;;;;5.30;1.30;;;;;;;-0.01;100.00;98661.45;175633;1264;46075;-81
2024/01/16 00:42:38;;;;;;;1.70;1.50;;;;;;;0.02;100.00;98672.91;177016;1263;46142;-81
2024/01/16 00:46:41;;;;;;;6.30;1.50;;;;;;;-0.03;100.00;98679.00;176802;1263;46004;-81
2024/01/16 00:50:46;;;;;;;8.60;2.80;;;;;;;-0.11;100.00;98696.05;176656;1263;58249;-82
2024/01/16 00:54:49;;;;;;;3.90;2.10;;;;;;;-0.22;100.00;98696.70;177002;1263;46094;-82
2024/01/16 00:58:53;;;;;;;1.80;0.90;;;;;;;-0.25;100.00;98707.23;176732;1263;44753;-82
2024/01/16 01:02:58;;;;;;;3.50;1.40;;;;;;;-0.39;100.00;98716.95;176812;1265;45908;-82
2024/01/16 01:07:02;;;;;;;10.00;3.40;;;;;;;-0.39;100.00;98720.64;176630;1264;44488;-82
2024/01/16 01:11:05;;;;;;;3.10;1.20;;;;;;;-0.35;100.00;98727.54;178173;1263;58361;-82
2024/01/16 01:15:10;;;;;;;6.00;2.70;;;;;;;-0.43;100.00;98726.59;175998;1267;46238;-81
2024/01/16 01:19:13;;;;;;;4.20;1.40;;;;;;;-0.38;100.00;98733.63;177386;1264;46055;-81
2024/01/16 01:23:17;;;;;;;1.60;1.20;;;;;;;-0.39;100.00;98735.44;177966;1264;46089;-82
2024/01/16 01:27:20;;;;;;;3.60;1.80;;;;;;;-0.36;100.00;98741.38;177885;1263;46119;-82
2024/01/16 01:31:24;;;;;;;9.70;2.00;;;;;;;-0.31;100.00;98752.85;177481;1263;57944;-82
2024/01/16 01:35:27;;;;;;;3.80;1.70;;;;;;;-0.28;100.00;98752.00;177111;1264;46170;-82
2024/01/16 01:39:30;;;;;;;3.40;2.10;;;;;;;-0.28;100.00;98759.33;176888;1264;46002;-82
2024/01/16 01:43:34;;;;;;;7.30;1.70;;;;;;;-0.23;100.00;98755.71;177105;1264;46128;-80
2024/01/16 01:47:39;;;;;;;4.20;2.40;;;;;;;-0.39;100.00;98753.38;176494;1264;46012;-82
2024/01/16 01:51:44;;;;;;;5.90;3.70;;;;;;;-0.73;100.00;98754.02;177096;1263;59902;-81
2024/01/16 01:55:48;;;;;;;4.00;3.30;;;;;;;-0.65;100.00;98757.70;177319;1267;46116;-81
2024/01/16 01:59:51;;;;;;;6.50;2.80;;;;;;;-0.50;100.00;98768.15;176801;1264;45255;-82
2024/01/16 02:03:56;;;;;;;7.40;3.90;;;;;;;-0.32;100.00;98778.74;177230;1263;46012;-81
2024/01/16 02:08:00;;;;;;;2.90;2.30;;;;;;;-0.15;100.00;98786.25;177777;1267;46286;-82
2024/01/16 02:12:05;;;;;;;7.40;2.80;;;;;;;-0.02;100.00;98794.32;178027;1263;59247;-81
2024/01/16 02:16:22;;;;;;;4.40;3.80;;;;;;;0.09;100.00;98799.23;177536;1264;46706;-82
2024/01/16 02:20:25;;;;;;;7.30;4.00;;;;;;;0.19;100.00;98804.39;177889;1264;46308;-81
2024/01/16 02:24:28;;;;;;;12.40;4.30;;;;;;;0.27;100.00;98817.66;178088;1263;45928;-82
2024/01/16 02:28:32;;;;;;;5.20;4.70;;;;;;;0.33;100.00;98824.60;177275;1264;44766;-81
2024/01/16 02:32:35;;;;;;;6.70;2.80;;;;;;;0.33;100.00;98833.33;177536;1265;57983;-82
2024/01/16 02:36:38;;;;;;;4.90;3.50;;;;;;;0.21;100.00;98835.48;177963;1263;44160;-82
2024/01/16 02:40:42;;;;;;;8.60;4.20;;;;;;;0.16;100.00;98833.69;177004;1263;45982;-82
2024/01/16 02:44:45;;;;;;;10.00;3.20;;;;;;;-0.03;100.00;98833.42;177190;1264;46587;-81
2024/01/16 02:48:48;;;;;;;4.70;3.60;;;;;;;-0.08;100.00;98838.81;177470;1263;46290;-82
2024/01/16 02:52:51;;;;;;;3.40;3.00;;;;;;;-0.10;100.00;98841.89;177409;1265;58305;-82
2024/01/16 02:56:54;;;;;;;6.40;3.60;;;;;;;-0.12;100.00;98839.38;177718;1264;46130;-81
2024/01/16 03:00:57;;;;;;;4.90;2.90;;;;;;;-0.16;100.00;98833.86;176208;1264;46260;-81
2024/01/16 03:05:04;;;;;;;4.10;2.80;;;;;;;-0.19;100.00;98825.87;176573;1263;46270;-81
2024/01/16 03:09:12;;;;;;;4.30;3.40;;;;;;;-0.08;100.00;98818.61;177127;1264;44816;-81
2024/01/16 03:13:15;;;;;;;6.40;3.70;;;;;;;0.02;100.00;98826.68;178317;1264;57780;-79
2024/01/16 03:17:18;;;;;;;4.10;2.60;;;;;;;0.09;100.00;98829.03;177138;1264;45807;-80
2024/01/16 03:21:22;;;;;;;3.60;3.00;;;;;;;0.14;100.00;98835.37;177561;1264;46021;-80
2024/01/16 03:25:25;;;;;;;3.60;2.20;;;;;;;0.15;100.00;98851.85;177610;1264;46225;-79
2024/01/16 03:29:28;;;;;;;4.10;3.40;;;;;;;0.14;100.00;98858.52;177290;1263;46082;-79
2024/01/16 03:33:31;;;;;;;4.40;3.50;;;;;;;0.17;100.00;98844.25;179459;1264;57402;-79
2024/01/16 03:37:37;;;;;;;6.60;2.40;;;;;;;0.22;100.00;98843.27;178565;1264;44547;-79
2024/01/16 03:41:40;;;;;;;4.80;3.00;;;;;;;0.25;100.00;98851.80;177235;1264;46007;-79
2024/01/16 03:45:43;;;;;;;4.70;2.40;;;;;;;0.26;100.00;98851.86;178592;1263;46123;-79
2024/01/16 03:49:46;;;;;;;4.80;2.60;;;;;;;0.25;100.00;98856.34;177296;1264;45143;-80
2024/01/16 03:53:49;;;;;;;6.40;2.60;;;;;;;0.21;100.00;98855.70;178495;1263;59123;-80
2024/01/16 03:57:53;;;;;;;2.60;1.60;;;;;;;0.16;100.00;98856.52;177890;1264;46052;-80
2024/01/16 04:01:56;;;;;;;3.40;2.20;;;;;;;0.11;100.00;98868.33;178024;1263;46020;-81
2024/01/16 04:05:59;;;;;;;2.70;2.50;;;;;;;0.17;100.00;98864.46;178094;1264;46025;-81
2024/01/16 04:10:05;;;;;;;2.50;1.50;;;;;;;0.27;100.00;98865.98;180153;1263;44091;-81
2024/01/16 04:14:08;;;;;;;4.70;2.10;;;;;;;0.39;100.00;98868.53;178765;1264;57945;-81
2024/01/16 04:18:12;;;;;;;4.30;2.40;;;;;;;0.45;100.00;98867.13;177962;1263;46007;-81
2024/01/16 04:22:15;;;;;;;1.80;1.60;;;;;;;0.52;100.00;98873.85;177928;1263;46191;-82
2024/01/16 04:26:18;;;;;;;2.30;1.50;;;;;;;0.57;100.00;98880.52;178680;1263;46016;-80
2024/01/16 04:30:21;;;;;;;2.00;1.30;;;;;;;0.54;100.00;98881.91;178917;1264;46020;-81
2024/01/16 04:34:24;;;;;;;2.00;1.10;;;;;;;0.46;100.00;98879.96;178451;1263;59901;-81
2024/01/16 04:38:27;;;;;;;1.90;1.00;;;;;;;0.37;100.00;98879.59;178029;1263;46254;-81
2024/01/16 04:42:32;;;;;;;2.10;1.70;;;;;;;0.26;100.00;98881.02;179810;1263;46077;-81
2024/01/16 04:46:35;;;;;;;4.00;1.70;;;;;;;0.21;100.00;98875.38;177768;1264;46114;-81
2024/01/16 04:50:38;;;;;;;3.30;1.80;;;;;;;0.17;100.00;98871.11;177763;1263;46016;-80
2024/01/16 04:54:41;;;;;;;2.80;1.80;;;;;;;0.16;100.00;98866.09;177593;1263;59289;-81
2024/01/16 04:58:44;;;;;;;4.80;2.80;;;;;;;0.20;100.00;98866.39;178553;1264;46103;-80
2024/01/16 05:02:48;;;;;;;4.00;3.40;;;;;;;0.29;100.00;98866.89;178897;1263;44069;-81
2024/01/16 05:06:55;;;;;;;6.50;4.30;;;;;;;0.39;100.00;98873.24;176463;1264;46041;-80
2024/01/16 05:10:58;;;;;;;5.20;3.20;;;;;;;0.48;100.00;98871.14;176427;1264;46013;-80
2024/01/16 05:15:01;;;;;;;6.80;4.50;;;;;;;0.55;100.00;98887.43;177407;1263;206510;-80
2024/01/16 05:19:04;;;;;;;8.10;4.10;;;;;;;0.54;100.00;98884.35;176718;1265;46448;-80
2024/01/16 05:23:08;;;;;;;3.50;3.10;;;;;;;0.43;100.00;98884.32;177511;1264;46453;-80
2024/01/16 05:27:11;;;;;;;3.70;3.00;;;;;;;0.31;100.00;98884.19;177254;1263;46247;-80
2024/01/16 05:31:14;;;;;;;6.00;3.80;;;;;;;0.20;100.00;98879.29;176209;1264;45995;-80
2024/01/16 05:35:17;;;;;;;4.00;3.20;;;;;;;0.22;100.00;98880.04;176792;1263;58475;-80
2024/01/16 05:39:21;;;;;;;5.40;3.70;;;;;;;0.27;100.00;98882.35;177040;1263;46067;-80
2024/01/16 05:43:24;;;;;;;4.60;3.10;;;;;;;0.34;100.00;98890.45;178769;1263;46026;-80
2024/01/16 05:47:27;;;;;;;9.00;4.90;;;;;;;0.43;100.00;98887.98;179308;1263;44337;-80
2024/01/16 05:51:31;;;;;;;6.80;3.00;;;;;;;0.49;100.00;98881.55;180394;1263;44065;-80
2024/01/16 05:55:36;;;;;;;7.10;5.20;;;;;;;0.48;100.00;98888.18;178213;1263;59564;-80
2024/01/16 05:59:39;;;;;;;5.60;2.70;;;;;;;0.37;100.00;98948.87;179180;1263;43923;-80
2024/01/16 06:03:45;;;;;;;7.50;2.20;;;;;;;0.31;100.00;98981.52;177828;1263;46060;-80
2024/01/16 06:07:48;;;;;;;5.40;2.40;;;;;;;0.05;100.00;98985.67;176322;1263;46011;-80
2024/01/16 06:11:51;;;;;;;3.30;2.10;;;;;;;-0.17;100.00;98990.91;177930;1264;45935;-81
2024/01/16 06:15:54;;;;;;;3.90;2.20;;;;;;;-0.31;100.00;98985.29;177512;1264;59544;-80
2024/01/16 06:19:57;;;;;;;3.60;1.90;;;;;;;-0.39;100.00;98994.11;176906;1263;44749;-80
2024/01/16 06:24:00;;;;;;;6.00;2.50;;;;;;;-0.48;100.00;99010.30;178295;1264;46005;-81
2024/01/16 06:28:05;;;;;;;3.50;1.90;;;;;;;-0.54;100.00;99013.91;176750;1264;46023;-80
2024/01/16 06:32:08;;;;;;;1.40;1.30;;;;;;;-0.63;100.00;99025.58;176089;1265;46235;-80
2024/01/16 06:36:11;;;;;;;3.00;2.00;;;;;;;-0.71;100.00;99037.30;176159;1264;58316;-80
2024/01/16 06:40:15;;;;;;;3.00;2.70;;;;;;;-0.77;100.00;99041.30;177136;1264;46132;-80
2024/01/16 06:44:18;;;;;;;5.30;1.70;;;;;;;-0.80;100.00;99043.37;175937;1264;46116;-81
2024/01/16 06:48:22;;;;;;;4.00;1.90;;;;;;;-0.89;100.00;99050.65;176224;1263;46123;-81
2024/01/16 06:52:25;;;;;;;58.40;25.00;;;;;;;-1.05;100.00;99057.60;175658;1263;46056;-81
2024/01/16 06:56:29;;;;;;;21.60;7.60;;;;;;;-1.14;100.00;99056.88;176326;1264;59539;-81
2024/01/16 07:00:32;;;;;;;5.10;2.40;;;;;;;-1.19;100.00;99068.06;177119;1264;46097;-80
2024/01/16 07:04:36;;;;;;;2.80;1.30;;;;;;;-1.30;100.00;99078.38;176985;1267;46045;-80
2024/01/16 07:08:39;;;;;;;6.10;4.10;;;;;;;-1.42;100.00;99092.92;176593;1264;46161;-81
2024/01/16 07:12:42;;;;;;;4.50;2.50;;;;;;;-1.40;100.00;99108.98;176839;1265;46059;-80
2024/01/16 07:16:46;;;;;;;9.60;2.60;;;;;;;-1.33;100.00;99112.27;178098;1263;57953;-81
2024/01/16 07:20:49;;;;;;;3.80;2.90;;;;;;;-1.42;100.00;99115.34;176773;1264;46120;-80
2024/01/16 07:24:52;;;;;;;5.60;2.50;;;;;;;-1.47;100.00;99121.50;177767;1263;44635;-80
2024/01/16 07:28:56;;;;;;;6.80;3.10;;;;;;;-1.49;100.00;99126.00;178375;1264;46133;-80
2024/01/16 07:32:59;;;;;;;5.70;3.00;;;;;;;-1.45;100.00;99133.77;177764;1264;46014;-80
2024/01/16 07:37:03;;;;;;;3.30;2.60;;;;;;;-1.36;100.00;99140.98;177401;1264;58291;-80
2024/01/16 07:41:06;;;;;;;25.40;14.40;;;;;;;-1.25;100.00;99142.50;178026;1263;46127;-80
2024/01/16 07:45:10;;;;;;;16.60;9.10;;;;;;;-1.10;100.00;99146.80;177021;1265;46130;-80
2024/01/16 07:49:14;;;;;;;13.80;8.40;;;;;;;-1.04;100.00;99159.00;177234;1264;45896;-79
2024/01/16 07:53:17;;;;;;;11.20;5.50;;;;;;;-0.92;100.00;99160.45;176937;1265;46115;-80
2024/01/16 07:57:20;;;;;;;11.00;4.00;;;;;;;-0.89;100.00;99169.55;177243;1265;58242;-80
2024/01/16 08:01:24;;;;;;;8.90;4.80;;;;;;;-0.81;100.00;99170.33;178021;1264;46223;-80
2024/01/16 08:05:27;;;;;;;13.80;6.10;;;;;;;-0.73;100.00;99176.02;179495;1264;46224;-80
2024/01/16 08:09:31;;;;;;;12.00;9.00;;;;;;;-0.59;100.00;99180.14;179531;1264;45006;-80
2024/01/16 08:13:34;;;;;;;15.20;10.20;;;;;;;-0.38;100.00;99190.22;178932;1265;44144;-80
2024/01/16 08:17:37;;;;;;;26.80;15.20;;;;;;;-0.14;100.00;99200.92;176981;1267;58012;-81
2024/01/16 08:21:40;;;;;;;28.30;11.60;;;;;;;0.05;100.00;99205.11;177559;1265;46252;-80
2024/01/16 08:25:43;;;;;;;12.80;7.80;;;;;;;0.23;100.00;99215.09;176619;1264;46137;-80
2024/01/16 08:29:49;;;;;;;8.20;3.80;;;;;;;0.27;100.00;99213.87;176474;1265;46110;-80
2024/01/16 08:33:55;;;;;;;10.00;4.10;;;;;;;0.35;100.00;99218.28;176205;1265;46114;-80
2024/01/16 08:37:59;;;;;;;9.80;4.20;;;;;;;0.42;100.00;99221.92;176338;1265;59002;-80
2024/01/16 08:42:03;;;;;;;5.40;4.00;;;;;;;0.46;100.00;99221.84;176405;1265;46103;-80
2024/01/16 08:46:06;;;;;;;13.50;6.10;;;;;;;0.58;100.00;99223.44;177526;1264;96586;-84
2024/01/16 08:50:10;;;;;;;6.00;3.40;;;;;;;0.75;100.00;99223.17;177186;1265;45943;-85
2024/01/16 08:54:13;;;;;;;8.10;4.00;;;;;;;0.88;100.00;99224.34;177592;1268;46069;-84
2024/01/16 08:58:16;;;;;;;8.20;3.90;;;;;;;0.84;100.00;99226.49;177478;1265;58238;-85
2024/01/16 09:02:19;;;;;;;7.90;3.90;;;;;;;0.86;100.00;99230.40;176595;1265;46097;-83
2024/01/16 09:06:23;;;;;;;6.00;4.10;;;;;;;0.94;100.00;99234.65;176664;1265;46137;-85
2024/01/16 09:10:26;;;;;;;6.20;4.30;;;;;;;1.05;100.00;99233.50;176712;1265;46097;-85
2024/01/16 09:14:29;;;;;;;8.40;4.00;;;;;;;1.24;100.00;99235.14;176975;1263;46094;-86
2024/01/16 09:18:33;;;;;;;9.60;6.20;;;;;;;1.55;100.00;99236.77;176740;1263;59609;-83
2024/01/16 09:22:37;;;;;;;11.60;4.80;;;;;;;1.96;100.00;99249.30;177176;1264;46106;-86
2024/01/16 09:26:40;;;;;;;8.50;4.90;;;;;;;2.19;100.00;99253.34;177056;1265;46119;-87
2024/01/16 09:30:43;;;;;;;10.10;5.20;;;;;;;2.33;100.00;99254.86;176544;1264;45972;-85
2024/01/16 09:34:47;;;;;;;6.70;5.40;;;;;;;2.51;100.00;99255.11;176447;1265;46147;-87
2024/01/16 09:38:51;;;;;;;15.70;7.40;;;;;;;2.79;100.00;99260.52;176801;1265;59816;-88
2024/01/16 09:42:54;;;;;;;16.90;7.40;;;;;;;2.91;99.94;99266.34;176653;1264;46111;-85
2024/01/16 09:46:59;;;;;;;12.40;8.10;;;;;;;3.05;100.00;99269.66;176861;1265;46116;-87
2024/01/16 09:51:03;;;;;;;10.50;6.90;;;;;;;3.10;98.85;99275.09;176475;1267;46125;-87
2024/01/16 09:55:06;;;;;;;8.10;6.10;;;;;;;2.99;96.44;99282.98;176826;1267;46036;-88
2024/01/16 09:59:17;;;;;;;14.00;9.90;;;;;;;2.72;93.86;99285.95;176617;1266;59187;-89
2024/01/16 10:03:21;;;;;;;10.40;8.20;;;;;;;2.56;96.72;99292.61;177696;1264;45922;-89
2024/01/16 10:07:28;;;;;;;11.30;6.80;;;;;;;2.31;96.81;99288.98;177836;1267;46103;-89
2024/01/16 10:11:34;;;;;;;13.80;5.30;;;;;;;1.99;97.22;99295.45;176968;1267;46260;-88
2024/01/16 10:15:39;;;;;;;10.30;7.20;;;;;;;1.64;99.29;99302.16;176850;1265;45972;-87
2024/01/16 10:19:54;;;;;;;10.00;5.50;;;;;;;1.62;100.00;99304.03;176842;1267;57956;-88
2024/01/16 10:24:11;;;;;;;7.40;5.60;;;;;;;1.65;100.00;99298.59;176660;1267;46032;-87
2024/01/16 10:28:20;;;;;;;9.50;5.40;;;;;;;1.47;100.00;99297.88;176729;1267;46587;-86
2024/01/16 10:32:29;;;;;;;9.70;4.40;;;;;;;1.44;100.00;99303.84;176752;1267;46231;-87
2024/01/16 10:36:33;;;;;;;11.70;5.00;;;;;;;1.29;100.00;99312.75;176454;1263;46117;-86
2024/01/16 10:40:37;;;;;;;4.80;4.00;;;;;;;1.18;100.00;99314.45;176581;1265;59647;-86
2024/01/16 10:45:07;;;;;;;10.30;5.30;;;;;;;1.27;100.00;99309.90;176744;1264;46040;-86
2024/01/16 10:49:11;;;;;;;9.70;5.60;;;;;;;1.36;100.00;99311.48;177135;1264;46094;-87
2024/01/16 10:53:19;;;;;;;7.70;4.00;;;;;;;1.27;100.00;99316.75;176687;1264;46128;-86
2024/01/16 10:57:24;;;;;;;4.70;3.80;;;;;;;1.02;100.00;99324.61;176630;1265;46046;-86
2024/01/16 11:01:29;;;;;;;7.20;4.70;;;;;;;0.76;100.00;99324.70;176784;1265;58000;-86
2024/01/16 11:05:34;;;;;;;6.10;3.10;;;;;;;0.82;100.00;99330.79;177108;1263;46116;-84
2024/01/16 11:09:38;;;;;;;4.30;3.90;;;;;;;0.69;100.00;99331.88;176897;1265;46114;-87
2024/01/16 11:13:44;;;;;;;7.10;4.50;;;;;;;0.63;100.00;99339.36;176641;1263;46260;-85
2024/01/16 11:17:49;;;;;;;13.70;3.70;;;;;;;0.84;100.00;99342.04;177183;1263;46047;-85
2024/01/16 11:21:53;;;;;;;5.60;3.70;;;;;;;1.10;100.00;99345.11;177074;1264;59566;-85
2024/01/16 11:25:57;;;;;;;5.70;4.30;;;;;;;1.14;100.00;99352.20;177245;1265;45994;-85
2024/01/16 11:30:01;;;;;;;5.80;4.10;;;;;;;1.12;100.00;99352.85;177086;1264;44162;-86
2024/01/16 11:34:05;;;;;;;5.70;4.60;;;;;;;1.14;98.85;99354.86;176736;1264;46008;-85
2024/01/16 11:38:16;;;;;;;3.40;2.50;;;;;;;1.13;97.68;99354.02;176799;1264;46125;-85
2024/01/16 11:42:27;;;;;;;7.30;3.70;;;;;;;1.05;96.09;99359.40;176905;1267;58293;-85
2024/01/16 11:47:03;;;;;;;4.60;2.40;;;;;;;1.07;93.26;99365.86;176866;1265;46162;-86
2024/01/16 11:51:25;;;;;;;2.10;1.10;;;;;;;0.93;95.73;99368.44;176861;1267;46126;-86
2024/01/16 11:55:31;;;;;;;3.00;2.30;;;;;;;0.72;99.61;99379.02;176727;1264;46472;-85
2024/01/16 11:59:53;;;;;;;5.60;2.70;;;;;;;0.70;98.60;99374.43;176606;1265;46109;-86
2024/01/16 12:04:05;;;;;;;6.90;4.60;;;;;;;0.98;94.15;99362.70;176817;1267;59249;-85
2024/01/16 12:08:09;;;;;;;6.00;1.80;;;;;;;1.09;93.01;99376.27;176474;1263;46130;-86
2024/01/16 12:12:15;;;;;;;6.90;3.20;;;;;;;0.93;94.06;99378.39;176672;1264;46050;-86
2024/01/16 12:16:19;;;;;;;3.40;2.70;;;;;;;0.95;95.27;99374.94;177252;1263;44074;-85
2024/01/16 12:20:24;;;;;;;6.30;3.50;;;;;;;1.04;95.65;99378.10;176805;1265;46081;-86
2024/01/16 12:24:28;;;;;;;6.70;4.20;;;;;;;1.16;96.48;99379.17;176801;1266;58394;-85
2024/01/16 12:28:31;;;;;;;7.60;3.10;;;;;;;1.26;97.18;99376.54;176668;1265;46123;-87
2024/01/16 12:32:36;;;;;;;4.20;2.60;;;;;;;1.23;96.43;99378.96;176981;1264;46068;-86
2024/01/16 12:36:40;;;;;;;7.00;3.00;;;;;;;1.26;95.39;99369.57;176614;1265;46171;-85
2024/01/16 12:40:46;;;;;;;4.90;2.40;;;;;;;1.25;95.22;99370.63;176702;1264;46152;-86
2024/01/16 12:44:49;;;;;;;6.50;3.10;;;;;;;1.24;94.80;99373.12;176917;1265;59352;-86
2024/01/16 12:48:54;;;;;;;3.20;2.50;;;;;;;1.11;94.34;99376.84;176812;1264;46586;-85
2024/01/16 12:53:11;;;;;;;3.00;2.30;;;;;;;1.05;96.16;99381.39;177065;1264;46001;-87
2024/01/16 12:57:19;;;;;;;8.60;2.50;;;;;;;1.09;98.50;99383.92;176481;1265;46088;-87
2024/01/16 13:01:28;;;;;;;3.90;3.40;;;;;;;1.11;100.00;99390.48;176790;1263;46124;-86
2024/01/16 13:05:42;;;;;;;5.20;3.90;;;;;;;1.10;100.00;99404.30;176480;1265;58283;-86
2024/01/16 13:09:47;;;;;;;5.00;3.30;;;;;;;1.12;100.00;99405.77;177058;1263;45927;-86
2024/01/16 13:14:03;;;;;;;4.80;3.20;;;;;;;1.18;100.00;99405.98;176633;1267;46056;-86
2024/01/16 13:18:16;;;;;;;8.00;3.40;;;;;;;1.13;100.00;99410.45;176591;1265;46150;-85
2024/01/16 13:22:20;;;;;;;6.40;3.40;;;;;;;0.97;100.00;99406.44;176876;1264;46229;-86
2024/01/16 13:26:36;;;;;;;5.20;3.40;;;;;;;0.83;100.00;99415.08;176885;1265;58304;-85
2024/01/16 13:30:41;;;;;;;9.40;3.90;;;;;;;0.80;100.00;99413.32;176771;1264;46130;-86
2024/01/16 13:34:50;;;;;;;4.60;2.50;;;;;;;0.70;100.00;99404.08;176638;1265;46114;-86
2024/01/16 13:38:54;;;;;;;4.60;3.40;;;;;;;0.60;100.00;99406.35;176698;1265;46657;-86
2024/01/16 13:42:59;;;;;;;3.10;1.80;;;;;;;0.54;100.00;99412.95;176984;1265;46020;-85
2024/01/16 13:47:03;;;;;;;8.80;3.20;;;;;;;0.59;100.00;99405.22;176940;1265;57931;-86
2024/01/16 13:51:15;;;;;;;4.40;2.50;;;;;;;0.62;100.00;99408.38;177391;1264;46012;-84
2024/01/16 13:55:19;;;;;;;8.70;4.80;;;;;;;0.55;100.00;99412.20;177023;1265;46105;-86
2024/01/16 13:59:22;;;;;;;10.80;4.60;;;;;;;0.40;100.00;99412.67;176983;1264;46076;-84
2024/01/16 14:03:26;;;;;;;6.00;3.60;;;;;;;0.19;100.00;99409.58;177422;1263;46170;-86
2024/01/16 14:07:30;;;;;;;7.90;4.30;;;;;;;-0.09;100.00;99415.20;176680;1265;58538;-86
2024/01/16 14:11:34;;;;;;;6.20;3.60;;;;;;;-0.37;100.00;99415.60;176639;1265;46213;-86
2024/01/16 14:15:39;;;;;;;3.90;3.00;;;;;;;-0.64;100.00;99412.58;177204;1264;44786;-87
2024/01/16 14:19:43;;;;;;;6.40;3.10;;;;;;;-1.02;100.00;99413.66;177259;1263;46555;-87
2024/01/16 14:23:46;;;;;;;4.60;3.50;;;;;;;-1.35;99.60;99416.10;176853;1265;46027;-86
2024/01/16 14:27:58;;;;;;;7.70;3.70;;;;;;;-1.64;99.67;99421.77;176826;1265;59570;-87
2024/01/16 14:32:02;;;;;;;8.00;4.40;;;;;;;-1.99;98.63;99433.73;176775;1265;46068;-85
2024/01/16 14:36:06;;;;;;;4.90;4.00;;;;;;;-2.09;99.59;99434.69;176448;1264;46361;-85
2024/01/16 14:40:12;;;;;;;7.50;3.80;;;;;;;-2.18;98.55;99442.67;176925;1265;46141;-86
2024/01/16 14:44:15;;;;;;;6.00;3.70;;;;;;;-2.18;97.98;99445.80;176905;1264;46194;-87
2024/01/16 14:48:19;;;;;;;5.30;3.20;;;;;;;-2.27;94.93;99447.92;176746;1265;57932;-85
2024/01/16 14:52:23;;;;;;;6.00;3.40;;;;;;;-2.51;93.09;99453.95;176885;1264;45993;-84
2024/01/16 14:56:27;;;;;;;9.60;5.60;;;;;;;-2.79;93.13;99459.25;176890;1265;46100;-85
2024/01/16 15:00:30;;;;;;;10.80;5.80;;;;;;;-3.00;94.61;99464.38;176645;1265;46094;-84
2024/01/16 15:04:34;;;;;;;11.80;5.80;;;;;;;-3.14;95.43;99457.30;177062;1265;46094;-84
2024/01/16 15:08:37;;;;;;;13.60;6.20;;;;;;;-3.18;97.03;99456.77;177046;1265;60067;-82
2024/01/16 15:12:45;;;;;;;11.20;6.30;;;;;;;-3.15;97.04;99458.05;177869;1266;46021;-84
2024/01/16 15:16:48;;;;;;;14.50;5.60;;;;;;;-3.11;96.89;99455.64;176776;1264;46065;-82
2024/01/16 15:20:52;;;;;;;14.30;8.40;;;;;;;-3.08;96.78;99454.83;176819;1265;45880;-85
2024/01/16 15:24:56;;;;;;;50.20;20.30;;;;;;;-3.19;96.13;99457.50;177286;1265;46146;-84
2024/01/16 15:29:01;;;;;;;56.60;25.00;;;;;;;-3.29;96.55;99463.08;177365;1265;59057;-85
2024/01/16 15:33:04;;;;;;;84.10;35.70;;;;;;;-3.40;96.41;99461.94;176697;1265;46223;-84
2024/01/16 15:37:08;;;;;;;130.80;57.90;;;;;;;-3.48;98.34;99456.16;177086;1265;45995;-86
2024/01/16 15:41:12;;;;;;;99.30;51.90;;;;;;;-3.46;100.00;99453.65;177347;1266;45970;-87
2024/01/16 15:45:15;;;;;;;155.00;77.50;;;;;;;-3.43;100.00;99453.00;176917;1265;46011;-86
2024/01/16 15:49:19;;;;;;;299.10;144.00;;;;;;;-3.42;100.00;99458.22;177559;1265;59279;-84
2024/01/16 15:53:22;;;;;;;262.90;114.90;;;;;;;-3.43;100.00;99457.34;176868;1264;46120;-87
2024/01/16 15:57:26;;;;;;;175.90;87.90;;;;;;;-3.45;100.00;99456.02;177046;1265;46462;-87
2024/01/16 16:01:29;;;;;;;128.10;62.60;;;;;;;-3.51;100.00;99458.50;177752;1268;46053;-85
2024/01/16 16:05:32;;;;;;;133.40;65.80;;;;;;;-3.58;100.00;99456.53;177429;1264;46155;-85
2024/01/16 16:09:36;;;;;;;82.50;42.90;;;;;;;-3.73;100.00;99459.67;178330;1266;59741;-84
2024/01/16 16:13:40;;;;;;;63.20;38.20;;;;;;;-3.82;100.00;99459.27;177755;1267;46123;-84
2024/01/16 16:17:43;;;;;;;51.10;31.50;;;;;;;-3.88;100.00;99463.12;178609;1268;44061;-84
2024/01/16 16:21:48;;;;;;;57.80;36.80;;;;;;;-3.85;100.00;99465.80;179601;1265;46027;-83
2024/01/16 16:25:52;;;;;;;61.70;37.60;;;;;;;-3.79;100.00;99458.98;177597;1265;44633;-86
2024/01/16 16:29:56;;;;;;;64.60;36.10;;;;;;;-3.75;100.00;99454.86;177659;1265;58273;-87
2024/01/16 16:34:03;;;;;;;69.40;43.20;;;;;;;-3.78;100.00;99451.67;177817;1267;46103;-88
2024/01/16 16:38:06;;;;;;;;;;;;;;;-3.89;100.00;99459.17;177641;1265;46168;-87
2024/01/16 16:42:12;;;;;;;100.10;54.90;;;;;;;-3.99;100.00;99459.35;177279;1270;45916;-87
2024/01/16 16:46:20;;;;;;;106.90;57.80;;;;;;;-4.13;100.00;99463.80;177402;1264;46018;-84
2024/01/16 16:50:24;;;;;;;200.90;95.20;;;;;;;-4.27;100.00;99471.39;177352;1264;59594;-87
2024/01/16 16:54:29;;;;;;;198.70;96.50;;;;;;;-4.31;100.00;99475.33;178309;1267;46079;-85
2024/01/16 16:58:33;;;;;;;185.00;89.50;;;;;;;-4.39;100.00;99472.84;177976;1265;44552;-86
2024/01/16 17:02:37;;;;;;;173.30;83.50;;;;;;;-4.49;100.00;99466.58;177217;1265;46117;-86
2024/01/16 17:06:41;;;;;;;183.60;85.60;;;;;;;-4.59;100.00;99468.45;177218;1265;46098;-87
2024/01/16 17:10:45;;;;;;;147.50;70.20;;;;;;;-4.69;100.00;99477.09;177188;1265;58553;-87
2024/01/16 17:14:51;;;;;;;115.60;59.50;;;;;;;-4.78;100.00;99482.52;177039;1265;412099;-86
2024/01/16 17:18:55;;;;;;;109.00;57.00;;;;;;;-4.84;100.00;99481.37;177763;1267;46120;-87
2024/01/16 17:22:59;;;;;;;88.80;46.20;;;;;;;-4.92;100.00;99483.15;177579;1266;46001;-88
2024/01/16 17:27:04;;;;;;;99.70;44.30;;;;;;;-4.92;100.00;99481.61;177591;1267;46092;-88
2024/01/16 17:31:08;;;;;;;101.60;51.90;;;;;;;-4.98;100.00;99478.66;177270;1265;58304;-87
2024/01/16 17:35:13;;;;;;;107.50;55.10;;;;;;;-4.89;100.00;99480.81;177475;1265;44216;-87
2024/01/16 17:39:20;;;;;;;118.10;56.60;;;;;;;-4.79;100.00;99486.02;177776;1264;46084;-87
2024/01/16 17:43:24;;;;;;;193.50;87.00;;;;;;;-4.74;100.00;99488.11;177646;1265;46114;-87
2024/01/16 17:47:28;;;;;;;151.10;70.50;;;;;;;-4.67;100.00;99498.15;177218;1265;46117;-87
2024/01/16 17:51:31;;;;;;;100.00;50.90;;;;;;;-4.60;100.00;99507.41;177204;1265;58301;-86
2024/01/16 17:55:35;;;;;;;115.90;53.00;;;;;;;-4.72;100.00;99509.17;177352;1267;46248;-87
2024/01/16 17:59:40;;;;;;;153.90;66.40;;;;;;;-4.80;100.00;99508.39;177430;1267;46053;-86
2024/01/16 18:03:46;;;;;;;276.60;131.10;;;;;;;-4.83;100.00;99510.04;176752;1267;44680;-85
2024/01/16 18:07:51;;;;;;;288.30;141.00;;;;;;;-4.75;100.00;99511.69;177168;1265;44474;-87
2024/01/16 18:11:56;;;;;;;274.70;130.20;;;;;;;-4.71;100.00;99509.51;176850;1264;60662;-86
2024/01/16 18:16:06;;;;;;;347.00;175.90;;;;;;;-4.64;100.00;99503.38;176870;1267;46161;-87
2024/01/16 18:20:10;;;;;;;396.90;181.70;;;;;;;-4.55;100.00;99502.59;176928;1267;46079;-85
2024/01/16 18:24:17;;;;;;;392.50;176.30;;;;;;;-4.44;100.00;99506.58;176918;1265;46283;-85
2024/01/16 18:28:21;;;;;;;269.00;117.80;;;;;;;-4.29;100.00;99508.68;176681;1265;45995;-85
2024/01/16 18:32:24;;;;;;;159.40;70.30;;;;;;;-4.21;100.00;99506.66;177115;1263;59629;-86
2024/01/16 18:36:28;;;;;;;125.70;58.10;;;;;;;-4.17;99.81;99508.63;177357;1267;46018;-85
2024/01/16 18:40:32;;;;;;;83.90;42.00;;;;;;;-4.17;99.33;99509.30;176876;1265;46044;-85
2024/01/16 18:44:36;;;;;;;90.50;48.00;;;;;;;-4.16;99.84;99506.35;177268;1265;46055;-86